createdAt,value
2018-02-19T00:00:25.078Z,66.96
2018-02-19T00:01:25.087Z,66.77
2018-02-19T00:02:24.821Z,67.14
2018-02-19T00:03:25.107Z,67.05
2018-02-19T00:04:24.846Z,67.05
2018-02-19T00:05:24.843Z,66.86
2018-02-19T00:06:24.860Z,66.86
2018-02-19T00:07:25.154Z,66.48
2018-02-19T00:08:25.162Z,66.29
2018-02-19T00:09:25.171Z,66.39
2018-02-19T00:10:24.994Z,66.77
2018-02-19T00:11:24.905Z,66.58
2018-02-19T00:12:24.914Z,66.67
2018-02-19T00:13:24.926Z,66.29
2018-02-19T00:14:24.933Z,66.67
2018-02-19T00:15:25.228Z,66.58
2018-02-19T00:16:24.954Z,66.58
2018-02-19T00:17:25.247Z,66.48
2018-02-19T00:18:25.268Z,66.29
2018-02-19T00:19:25.269Z,66.58
2018-02-19T00:20:25.328Z,66.29
2018-02-19T00:21:25.287Z,66.48
2018-02-19T00:22:25.295Z,66.54
2018-02-19T00:23:25.314Z,66.39
2018-02-19T00:24:25.315Z,66.77
2018-02-19T00:25:25.374Z,66.45
2018-02-19T00:26:25.337Z,66.67
2018-02-19T00:27:25.063Z,66.54
2018-02-19T00:28:25.358Z,66.39
2018-02-19T00:29:25.085Z,66.93
2018-02-19T00:30:25.094Z,66.64
2018-02-19T00:31:25.106Z,66.54
2018-02-19T00:32:25.394Z,66.35
2018-02-19T00:33:25.126Z,66.64
2018-02-19T00:34:25.416Z,66.64
2018-02-19T00:35:25.147Z,66.64
2018-02-19T00:36:25.437Z,67.11
2018-02-19T00:37:25.160Z,66.83
2018-02-19T00:38:25.454Z,66.45
2018-02-19T00:39:25.462Z,66.45
2018-02-19T00:40:25.481Z,66.54
2018-02-19T00:41:25.485Z,66.58
2018-02-19T00:42:25.498Z,67.3
2018-02-19T00:43:25.509Z,66.83
2018-02-19T00:44:25.234Z,67.21
2018-02-19T00:45:25.525Z,66.54
2018-02-19T00:46:25.533Z,67.3
2018-02-19T00:47:25.543Z,67.21
2018-02-19T00:48:25.554Z,66.74
2018-02-19T00:49:25.565Z,66.74
2018-02-19T00:50:25.575Z,66.93
2018-02-19T00:51:25.299Z,67.02
2018-02-19T00:52:25.590Z,66.93
2018-02-19T00:53:25.322Z,66.83
2018-02-19T00:54:25.611Z,66.74
2018-02-19T00:55:25.627Z,66.64
2018-02-19T00:56:25.628Z,66.74
2018-02-19T00:57:25.638Z,66.74
2018-02-19T00:58:25.652Z,66.74
2018-02-19T00:59:25.377Z,66.45
2018-02-19T01:00:25.674Z,66.93
2018-02-19T01:01:25.685Z,67.02
2018-02-19T01:02:25.692Z,67.58
2018-02-19T01:03:25.417Z,66.83
2018-02-19T01:04:25.712Z,67.49
2018-02-19T01:05:25.718Z,67.49
2018-02-19T01:06:25.730Z,67.3
2018-02-19T01:07:25.456Z,67.3
2018-02-19T01:08:25.747Z,67.4
2018-02-19T01:09:25.474Z,67.21
2018-02-19T01:10:25.772Z,67.11
2018-02-19T01:11:25.798Z,67.02
2018-02-19T01:12:25.504Z,67.11
2018-02-19T01:13:25.799Z,67.58
2018-02-19T01:14:25.811Z,67.02
2018-02-19T01:15:25.815Z,67.49
2018-02-19T01:16:25.546Z,67.49
2018-02-19T01:17:25.552Z,67.49
2018-02-19T01:18:25.846Z,67.49
2018-02-19T01:19:25.857Z,67.49
2018-02-19T01:20:25.865Z,67.58
2018-02-19T01:21:25.592Z,67.49
2018-02-19T01:22:25.882Z,67.4
2018-02-19T01:23:25.610Z,67.49
2018-02-19T01:24:25.900Z,67.11
2018-02-19T01:25:25.914Z,67.21
2018-02-19T01:26:25.930Z,67.4
2018-02-19T01:27:25.935Z,67.11
2018-02-19T01:28:25.661Z,67.4
2018-02-19T01:29:25.950Z,67.3
2018-02-19T01:30:25.962Z,67.21
2018-02-19T01:31:25.976Z,67.21
2018-02-19T01:32:25.699Z,67.02
2018-02-19T01:33:25.991Z,67.11
2018-02-19T01:34:25.716Z,67.3
2018-02-19T01:35:26.010Z,67.21
2018-02-19T01:36:25.737Z,67.11
2018-02-19T01:37:26.031Z,67.21
2018-02-19T01:38:26.042Z,67.3
2018-02-19T01:39:26.046Z,67.3
2018-02-19T01:40:26.059Z,67.21
2018-02-19T01:41:25.789Z,67.3
2018-02-19T01:42:26.076Z,67.49
2018-02-19T01:43:26.085Z,67.49
2018-02-19T01:44:25.814Z,67.21
2018-02-19T01:45:25.826Z,67.4
2018-02-19T01:46:26.115Z,67.3
2018-02-19T01:47:26.130Z,67.3
2018-02-19T01:48:26.135Z,67.3
2018-02-19T01:49:26.144Z,67.3
2018-02-19T01:50:26.168Z,67.4
2018-02-19T01:51:26.167Z,67.4
2018-02-19T01:52:26.175Z,67.4
2018-02-19T01:53:26.185Z,67.49
2018-02-19T01:54:25.911Z,67.58
2018-02-19T01:55:26.205Z,67.58
2018-02-19T01:56:26.313Z,67.49
2018-02-19T01:57:26.222Z,67.58
2018-02-19T01:58:26.228Z,67.58
2018-02-19T01:59:26.244Z,67.58
2018-02-19T02:00:25.968Z,67.49
2018-02-19T02:01:25.980Z,67.3
2018-02-19T02:02:26.270Z,67.3
2018-02-19T02:03:26.279Z,67.68
2018-02-19T02:04:26.288Z,67.3
2018-02-19T02:05:26.298Z,67.87
2018-02-19T02:06:26.023Z,67.4
2018-02-19T02:07:26.321Z,67.77
2018-02-19T02:08:26.328Z,67.4
2018-02-19T02:09:26.339Z,67.58
2018-02-19T02:10:26.063Z,67.49
2018-02-19T02:11:26.073Z,67.68
2018-02-19T02:12:26.080Z,67.87
2018-02-19T02:13:26.375Z,67.49
2018-02-19T02:14:26.382Z,67.77
2018-02-19T02:15:26.395Z,67.77
2018-02-19T02:16:26.450Z,67.77
2018-02-19T02:17:26.459Z,67.87
2018-02-19T02:18:26.426Z,67.68
2018-02-19T02:19:26.432Z,67.68
2018-02-19T02:20:26.444Z,67.68
2018-02-19T02:21:26.698Z,67.58
2018-02-19T02:22:26.474Z,67.87
2018-02-19T02:23:26.196Z,67.49
2018-02-19T02:24:26.478Z,67.87
2018-02-19T02:25:26.223Z,67.68
2018-02-19T02:26:26.501Z,67.68
2018-02-19T02:27:26.509Z,67.77
2018-02-19T02:28:26.234Z,67.87
2018-02-19T02:29:26.535Z,67.87
2018-02-19T02:30:26.539Z,67.68
2018-02-19T02:31:26.642Z,68.06
2018-02-19T02:32:26.555Z,68.25
2018-02-19T02:33:26.562Z,68.06
2018-02-19T02:34:26.586Z,67.77
2018-02-19T02:35:26.581Z,68.25
2018-02-19T02:36:26.646Z,68.25
2018-02-19T02:37:26.611Z,68.06
2018-02-19T02:38:26.616Z,68.06
2018-02-19T02:39:26.623Z,68.25
2018-02-19T02:40:26.639Z,68.06
2018-02-19T02:41:26.644Z,68.25
2018-02-19T02:42:26.652Z,68.06
2018-02-19T02:43:26.662Z,68.15
2018-02-19T02:44:26.669Z,68.06
2018-02-19T02:45:26.679Z,68.25
2018-02-19T02:46:26.871Z,68.06
2018-02-19T02:47:26.705Z,68.06
2018-02-19T02:48:26.708Z,68.25
2018-02-19T02:49:26.810Z,68.12
2018-02-19T02:50:26.808Z,67.74
2018-02-19T02:51:26.738Z,68.12
2018-02-19T02:52:26.740Z,68.15
2018-02-19T02:53:26.761Z,68.12
2018-02-19T02:54:26.764Z,68.21
2018-02-19T02:55:26.775Z,68.21
2018-02-19T02:56:26.780Z,68.12
2018-02-19T02:57:26.799Z,68.02
2018-02-19T02:58:26.819Z,68.02
2018-02-19T02:59:26.526Z,68.4
2018-02-19T03:00:26.839Z,68.02
2018-02-19T03:01:26.831Z,68.02
2018-02-19T03:02:26.836Z,68.21
2018-02-19T03:03:26.851Z,68.12
2018-02-19T03:04:26.573Z,67.83
2018-02-19T03:05:26.870Z,68.4
2018-02-19T03:06:26.877Z,68.02
2018-02-19T03:07:26.883Z,68.59
2018-02-19T03:08:26.907Z,68.21
2018-02-19T03:09:26.906Z,68.21
2018-02-19T03:10:26.911Z,68.21
2018-02-19T03:11:26.973Z,68.31
2018-02-19T03:12:26.647Z,68.31
2018-02-19T03:13:26.942Z,68.5
2018-02-19T03:14:26.953Z,68.31
2018-02-19T03:15:26.676Z,68.21
2018-02-19T03:16:26.685Z,68.31
2018-02-19T03:17:26.696Z,68.31
2018-02-19T03:18:26.999Z,68.5
2018-02-19T03:19:27.001Z,68.4
2018-02-19T03:20:26.810Z,68.5
2018-02-19T03:21:27.016Z,68.02
2018-02-19T03:22:27.027Z,68.02
2018-02-19T03:23:27.032Z,68.31
2018-02-19T03:24:26.765Z,68.21
2018-02-19T03:25:26.768Z,68.21
2018-02-19T03:26:26.782Z,68.31
2018-02-19T03:27:27.078Z,68.31
2018-02-19T03:28:26.798Z,68.31
2018-02-19T03:29:27.094Z,68.21
2018-02-19T03:30:27.101Z,68.12
2018-02-19T03:31:27.162Z,68.21
2018-02-19T03:32:27.117Z,68.21
2018-02-19T03:33:27.126Z,68.12
2018-02-19T03:34:26.864Z,68.21
2018-02-19T03:35:27.153Z,68.31
2018-02-19T03:36:27.203Z,68.31
2018-02-19T03:37:27.164Z,68.21
2018-02-19T03:38:26.895Z,68.21
2018-02-19T03:39:26.902Z,68.21
2018-02-19T03:40:27.194Z,68.31
2018-02-19T03:41:27.199Z,68.21
2018-02-19T03:42:27.210Z,68.21
2018-02-19T03:43:27.220Z,68.21
2018-02-19T03:44:27.229Z,68.21
2018-02-19T03:45:27.244Z,68.02
2018-02-19T03:46:27.247Z,68.12
2018-02-19T03:47:27.265Z,68.12
2018-02-19T03:48:27.267Z,68.21
2018-02-19T03:49:27.276Z,68.4
2018-02-19T03:50:27.284Z,68.21
2018-02-19T03:51:27.298Z,68.02
2018-02-19T03:52:27.305Z,68.02
2018-02-19T03:53:27.310Z,68.12
2018-02-19T03:54:27.036Z,67.83
2018-02-19T03:55:27.053Z,67.83
2018-02-19T03:56:27.372Z,68.02
2018-02-19T03:57:27.352Z,68.5
2018-02-19T03:58:27.114Z,68.21
2018-02-19T03:59:27.369Z,68.59
2018-02-19T04:00:27.093Z,68.59
2018-02-19T04:01:27.323Z,68.21
2018-02-19T04:02:27.394Z,68.21
2018-02-19T04:03:27.402Z,68.5
2018-02-19T04:04:27.129Z,68.21
2018-02-19T04:05:27.422Z,68.59
2018-02-19T04:06:27.147Z,68.12
2018-02-19T04:07:27.156Z,68.31
2018-02-19T04:08:27.454Z,69.07
2018-02-19T04:09:27.174Z,68.98
2018-02-19T04:10:27.235Z,68.69
2018-02-19T04:11:27.244Z,68.69
2018-02-19T04:12:27.206Z,68.88
2018-02-19T04:13:27.498Z,68.88
2018-02-19T04:14:27.220Z,68.98
2018-02-19T04:15:27.515Z,68.79
2018-02-19T04:16:27.290Z,68.88
2018-02-19T04:17:27.248Z,68.79
2018-02-19T04:18:27.257Z,68.79
2018-02-19T04:19:27.268Z,68.98
2018-02-19T04:20:27.274Z,68.79
2018-02-19T04:21:27.284Z,68.69
2018-02-19T04:22:27.576Z,68.98
2018-02-19T04:23:27.304Z,68.59
2018-02-19T04:24:27.309Z,68.59
2018-02-19T04:25:27.320Z,68.59
2018-02-19T04:26:27.331Z,68.59
2018-02-19T04:27:27.336Z,68.59
2018-02-19T04:28:27.628Z,68.69
2018-02-19T04:29:27.649Z,68.69
2018-02-19T04:30:27.649Z,68.59
2018-02-19T04:31:27.657Z,68.79
2018-02-19T04:32:27.385Z,68.69
2018-02-19T04:33:27.673Z,68.79
2018-02-19T04:34:27.684Z,68.69
2018-02-19T04:35:27.696Z,68.69
2018-02-19T04:36:27.424Z,68.79
2018-02-19T04:37:27.713Z,68.59
2018-02-19T04:38:27.728Z,68.5
2018-02-19T04:39:27.447Z,68.5
2018-02-19T04:40:27.744Z,68.59
2018-02-19T04:41:27.466Z,68.59
2018-02-19T04:42:27.474Z,68.79
2018-02-19T04:43:27.771Z,68.79
2018-02-19T04:44:27.490Z,68.59
2018-02-19T04:45:27.501Z,68.69
2018-02-19T04:46:27.793Z,68.79
2018-02-19T04:47:27.803Z,68.79
2018-02-19T04:48:27.529Z,68.79
2018-02-19T04:49:27.823Z,68.69
2018-02-19T04:50:27.832Z,68.79
2018-02-19T04:51:27.890Z,69.17
2018-02-19T04:52:27.565Z,68.88
2018-02-19T04:53:27.574Z,68.88
2018-02-19T04:54:27.635Z,68.88
2018-02-19T04:55:27.877Z,69.07
2018-02-19T04:56:27.601Z,69.17
2018-02-19T04:57:27.890Z,69.07
2018-02-19T04:58:27.619Z,68.98
2018-02-19T04:59:27.630Z,69.17
2018-02-19T05:00:27.640Z,68.98
2018-02-19T05:01:27.930Z,68.98
2018-02-19T05:02:27.656Z,68.88
2018-02-19T05:03:27.673Z,69.17
2018-02-19T05:04:27.671Z,69.17
2018-02-19T05:05:27.681Z,69.17
2018-02-19T05:06:27.691Z,68.88
2018-02-19T05:07:27.984Z,68.88
2018-02-19T05:08:27.999Z,68.88
2018-02-19T05:09:27.717Z,68.98
2018-02-19T05:10:27.727Z,68.88
2018-02-19T05:11:28.018Z,68.98
2018-02-19T05:12:28.031Z,68.88
2018-02-19T05:13:28.040Z,68.79
2018-02-19T05:14:28.094Z,68.88
2018-02-19T05:15:28.051Z,68.65
2018-02-19T05:16:27.779Z,68.79
2018-02-19T05:17:27.788Z,68.65
2018-02-19T05:18:27.796Z,68.79
2018-02-19T05:19:28.089Z,68.88
2018-02-19T05:20:28.099Z,68.88
2018-02-19T05:21:28.109Z,69.07
2018-02-19T05:22:28.115Z,68.98
2018-02-19T05:23:27.844Z,68.98
2018-02-19T05:24:27.850Z,69.07
2018-02-19T05:25:27.868Z,69.07
2018-02-19T05:26:27.870Z,69.22
2018-02-19T05:27:28.161Z,69.17
2018-02-19T05:28:27.891Z,69.26
2018-02-19T05:29:28.189Z,69.13
2018-02-19T05:30:28.190Z,68.88
2018-02-19T05:31:28.196Z,68.84
2018-02-19T05:32:28.202Z,69.07
2018-02-19T05:33:28.214Z,69.26
2018-02-19T05:34:28.223Z,69.35
2018-02-19T05:35:27.952Z,69.03
2018-02-19T05:36:28.238Z,69.07
2018-02-19T05:37:28.251Z,69.22
2018-02-19T05:38:28.259Z,69.26
2018-02-19T05:39:27.982Z,69.26
2018-02-19T05:40:28.000Z,69.45
2018-02-19T05:41:28.315Z,69.26
2018-02-19T05:42:28.008Z,69.17
2018-02-19T05:43:28.306Z,68.98
2018-02-19T05:44:28.310Z,69.32
2018-02-19T05:45:28.317Z,69.32
2018-02-19T05:46:28.334Z,69.26
2018-02-19T05:47:28.339Z,69.35
2018-02-19T05:48:28.343Z,69.26
2018-02-19T05:49:28.353Z,69.35
2018-02-19T05:50:28.422Z,69.26
2018-02-19T05:51:28.376Z,69.26
2018-02-19T05:52:28.381Z,69.51
2018-02-19T05:53:28.394Z,69.41
2018-02-19T05:54:28.398Z,69.6
2018-02-19T05:55:28.409Z,69.6
2018-02-19T05:56:28.414Z,70.17
2018-02-19T05:57:28.468Z,69.98
2018-02-19T05:58:28.436Z,69.79
2018-02-19T05:59:28.440Z,69.6
2018-02-19T06:00:28.458Z,69.7
2018-02-19T06:01:28.460Z,69.79
2018-02-19T06:02:28.473Z,69.89
2018-02-19T06:03:28.196Z,69.89
2018-02-19T06:04:28.492Z,69.89
2018-02-19T06:05:28.212Z,69.79
2018-02-19T06:06:28.507Z,69.98
2018-02-19T06:07:28.515Z,69.79
2018-02-19T06:08:28.522Z,69.89
2018-02-19T06:09:28.246Z,69.6
2018-02-19T06:10:28.258Z,69.7
2018-02-19T06:11:28.548Z,69.89
2018-02-19T06:12:28.585Z,69.7
2018-02-19T06:13:28.570Z,69.7
2018-02-19T06:14:28.574Z,69.89
2018-02-19T06:15:28.583Z,69.89
2018-02-19T06:16:28.594Z,69.79
2018-02-19T06:17:28.604Z,69.79
2018-02-19T06:18:28.610Z,69.89
2018-02-19T06:19:28.620Z,69.79
2018-02-19T06:20:28.627Z,69.6
2018-02-19T06:21:28.637Z,69.82
2018-02-19T06:22:28.364Z,69.7
2018-02-19T06:23:28.654Z,69.7
2018-02-19T06:24:28.673Z,69.7
2018-02-19T06:25:28.391Z,69.51
2018-02-19T06:26:28.401Z,69.79
2018-02-19T06:27:28.690Z,69.7
2018-02-19T06:28:28.415Z,69.7
2018-02-19T06:29:28.423Z,69.89
2018-02-19T06:30:28.718Z,69.7
2018-02-19T06:31:28.728Z,69.7
2018-02-19T06:32:28.736Z,69.89
2018-02-19T06:33:28.741Z,69.98
2018-02-19T06:34:28.753Z,69.89
2018-02-19T06:35:28.758Z,69.98
2018-02-19T06:36:28.767Z,69.89
2018-02-19T06:37:28.777Z,70.17
2018-02-19T06:38:28.513Z,70.17
2018-02-19T06:39:28.520Z,70.17
2018-02-19T06:40:28.839Z,70.26
2018-02-19T06:41:28.810Z,70.17
2018-02-19T06:42:28.816Z,69.7
2018-02-19T06:43:28.826Z,69.79
2018-02-19T06:44:28.835Z,69.89
2018-02-19T06:45:28.844Z,70.07
2018-02-19T06:46:28.855Z,69.79
2018-02-19T06:47:28.865Z,70.07
2018-02-19T06:48:28.596Z,70.17
2018-02-19T06:49:28.599Z,70.17
2018-02-19T06:50:28.892Z,70.26
2018-02-19T06:51:28.902Z,70.07
2018-02-19T06:52:28.908Z,69.98
2018-02-19T06:53:28.919Z,69.98
2018-02-19T06:54:28.641Z,69.98
2018-02-19T06:55:28.649Z,69.98
2018-02-19T06:56:28.665Z,70.07
2018-02-19T06:57:28.667Z,70.01
2018-02-19T06:58:28.963Z,69.98
2018-02-19T06:59:29.001Z,69.98
2018-02-19T07:00:28.695Z,70.26
2018-02-19T07:01:28.991Z,70.17
2018-02-19T07:02:28.717Z,70.2
2018-02-19T07:03:29.008Z,70.07
2018-02-19T07:04:29.048Z,70.01
2018-02-19T07:05:29.034Z,70.11
2018-02-19T07:06:28.748Z,70.11
2018-02-19T07:07:29.037Z,70.11
2018-02-19T07:08:29.047Z,70.11
2018-02-19T07:09:29.053Z,70.07
2018-02-19T07:10:29.068Z,70.01
2018-02-19T07:11:29.076Z,70.2
2018-02-19T07:12:28.803Z,70.07
2018-02-19T07:13:29.093Z,69.92
2018-02-19T07:14:29.099Z,69.89
2018-02-19T07:15:29.109Z,70.2
2018-02-19T07:16:28.834Z,69.82
2018-02-19T07:17:29.124Z,69.82
2018-02-19T07:18:29.134Z,70.11
2018-02-19T07:19:29.140Z,70.01
2018-02-19T07:20:29.153Z,69.92
2018-02-19T07:21:29.162Z,69.92
2018-02-19T07:22:28.886Z,69.92
2018-02-19T07:23:29.179Z,69.92
2018-02-19T07:24:28.904Z,70.01
2018-02-19T07:25:29.198Z,70.11
2018-02-19T07:26:28.925Z,70.01
2018-02-19T07:27:29.214Z,69.92
2018-02-19T07:28:29.221Z,70.2
2018-02-19T07:29:29.234Z,70.2
2018-02-19T07:30:29.248Z,69.82
2018-02-19T07:31:29.301Z,70.01
2018-02-19T07:32:29.255Z,70.2
2018-02-19T07:33:28.988Z,69.82
2018-02-19T07:34:29.284Z,70.01
2018-02-19T07:35:29.008Z,70.01
2018-02-19T07:36:29.302Z,70.2
2018-02-19T07:37:29.302Z,70.11
2018-02-19T07:38:29.312Z,69.64
2018-02-19T07:39:29.318Z,69.92
2018-02-19T07:40:29.051Z,69.82
2018-02-19T07:41:29.335Z,69.92
2018-02-19T07:42:29.062Z,69.73
2018-02-19T07:43:29.359Z,69.54
2018-02-19T07:44:29.363Z,69.54
2018-02-19T07:45:29.376Z,69.54
2018-02-19T07:46:29.384Z,69.73
2018-02-19T07:47:29.402Z,69.54
2018-02-19T07:48:29.398Z,69.54
2018-02-19T07:49:29.124Z,69.73
2018-02-19T07:50:29.132Z,70.2
2018-02-19T07:51:29.148Z,69.92
2018-02-19T07:52:29.155Z,69.64
2018-02-19T07:53:29.445Z,69.64
2018-02-19T07:54:29.458Z,69.64
2018-02-19T07:55:29.184Z,69.73
2018-02-19T07:56:29.470Z,69.82
2018-02-19T07:57:29.197Z,69.82
2018-02-19T07:58:29.207Z,69.82
2018-02-19T07:59:29.501Z,69.82
2018-02-19T08:00:29.506Z,69.82
2018-02-19T08:01:29.527Z,69.92
2018-02-19T08:02:29.575Z,69.92
2018-02-19T08:03:29.254Z,69.64
2018-02-19T08:04:29.542Z,69.64
2018-02-19T08:05:29.560Z,70.11
2018-02-19T08:06:29.560Z,69.64
2018-02-19T08:07:29.575Z,69.64
2018-02-19T08:08:29.581Z,69.64
2018-02-19T08:09:29.592Z,69.82
2018-02-19T08:10:29.596Z,69.82
2018-02-19T08:11:29.613Z,69.73
2018-02-19T08:12:29.785Z,69.92
2018-02-19T08:13:29.346Z,69.82
2018-02-19T08:14:29.632Z,69.96
2018-02-19T08:15:29.645Z,70.15
2018-02-19T08:16:29.661Z,69.96
2018-02-19T08:17:29.661Z,69.96
2018-02-19T08:18:29.386Z,69.86
2018-02-19T08:19:29.679Z,69.67
2018-02-19T08:20:29.688Z,69.38
2018-02-19T08:21:29.414Z,69.96
2018-02-19T08:22:29.758Z,70.05
2018-02-19T08:23:29.716Z,70.05
2018-02-19T08:24:29.726Z,70.15
2018-02-19T08:25:29.736Z,70.05
2018-02-19T08:26:29.740Z,69.96
2018-02-19T08:27:29.802Z,70.05
2018-02-19T08:28:29.480Z,70.05
2018-02-19T08:29:29.771Z,69.96
2018-02-19T08:30:29.495Z,70.15
2018-02-19T08:31:29.513Z,69.48
2018-02-19T08:32:29.851Z,69.67
2018-02-19T08:33:29.807Z,69.48
2018-02-19T08:34:29.815Z,69.48
2018-02-19T08:35:29.828Z,69.29
2018-02-19T08:36:29.552Z,69.29
2018-02-19T08:37:29.843Z,69.1
2018-02-19T08:38:29.863Z,69.29
2018-02-19T08:39:29.577Z,69.29
2018-02-19T08:40:29.874Z,69.29
2018-02-19T08:41:29.937Z,69.2
2018-02-19T08:42:29.890Z,68.73
2018-02-19T08:43:29.915Z,69.29
2018-02-19T08:44:29.907Z,69.01
2018-02-19T08:45:29.925Z,69.1
2018-02-19T08:46:29.932Z,69.29
2018-02-19T08:47:29.936Z,69.1
2018-02-19T08:48:29.947Z,68.82
2018-02-19T08:49:29.956Z,68.82
2018-02-19T08:50:29.969Z,69.1
2018-02-19T08:51:29.973Z,68.63
2018-02-19T08:52:30.180Z,69.01
2018-02-19T08:53:29.710Z,69.01
2018-02-19T08:54:30.006Z,69.2
2018-02-19T08:55:30.012Z,69.01
2018-02-19T08:56:29.745Z,69.2
2018-02-19T08:57:29.747Z,68.73
2018-02-19T08:58:29.763Z,68.91
2018-02-19T08:59:30.127Z,68.73
2018-02-19T09:00:30.058Z,68.85
2018-02-19T09:01:30.066Z,68.66
2018-02-19T09:02:30.074Z,68.73
2018-02-19T09:03:29.803Z,68.95
2018-02-19T09:04:29.813Z,68.95
2018-02-19T09:05:30.107Z,68.38
2018-02-19T09:06:30.114Z,68.57
2018-02-19T09:07:29.844Z,68.66
2018-02-19T09:08:29.851Z,68.1
2018-02-19T09:09:30.146Z,68.29
2018-02-19T09:10:30.158Z,68.29
2018-02-19T09:11:30.170Z,68.29
2018-02-19T09:12:30.173Z,68.38
2018-02-19T09:13:30.192Z,68.1
2018-02-19T09:14:30.194Z,68.29
2018-02-19T09:15:30.204Z,67.9
2018-02-19T09:16:30.211Z,67.9
2018-02-19T09:17:30.252Z,68.19
2018-02-19T09:18:30.229Z,68
2018-02-19T09:19:30.237Z,68.1
2018-02-19T09:20:30.247Z,68.19
2018-02-19T09:21:30.260Z,67.71
2018-02-19T09:22:29.984Z,67.71
2018-02-19T09:23:30.282Z,68
2018-02-19T09:24:30.007Z,67.52
2018-02-19T09:25:30.296Z,67.33
2018-02-19T09:26:30.305Z,67.33
2018-02-19T09:27:30.035Z,67.52
2018-02-19T09:28:30.043Z,67.71
2018-02-19T09:29:30.337Z,67.43
2018-02-19T09:30:30.348Z,67.52
2018-02-19T09:31:30.366Z,67.24
2018-02-19T09:32:30.367Z,67.24
2018-02-19T09:33:30.092Z,67.33
2018-02-19T09:34:30.385Z,67.14
2018-02-19T09:35:30.394Z,67.14
2018-02-19T09:36:30.406Z,67.33
2018-02-19T09:37:30.414Z,67.52
2018-02-19T09:38:30.424Z,67.33
2018-02-19T09:39:30.166Z,67.43
2018-02-19T09:40:30.443Z,67.33
2018-02-19T09:41:30.172Z,67.43
2018-02-19T09:42:30.466Z,67.33
2018-02-19T09:43:30.193Z,67.43
2018-02-19T09:44:30.199Z,67.37
2018-02-19T09:45:30.490Z,67.33
2018-02-19T09:46:30.502Z,66.77
2018-02-19T09:47:30.512Z,66.96
2018-02-19T09:48:30.237Z,66.52
2018-02-19T09:49:30.527Z,66.89
2018-02-19T09:50:30.255Z,66.8
2018-02-19T09:51:30.548Z,66.61
2018-02-19T09:52:30.560Z,66.89
2018-02-19T09:53:30.568Z,66.71
2018-02-19T09:54:30.587Z,66.42
2018-02-19T09:55:30.586Z,66.89
2018-02-19T09:56:30.595Z,66.42
2018-02-19T09:57:30.609Z,66.52
2018-02-19T09:58:30.665Z,66.99
2018-02-19T09:59:30.632Z,66.99
2018-02-19T10:00:30.640Z,66.61
2018-02-19T10:01:30.648Z,66.14
2018-02-19T10:02:30.660Z,66.71
2018-02-19T10:03:30.668Z,66.33
2018-02-19T10:04:30.679Z,66.14
2018-02-19T10:05:30.798Z,66.04
2018-02-19T10:06:30.706Z,66.04
2018-02-19T10:07:30.714Z,65.75
2018-02-19T10:08:30.719Z,66.14
2018-02-19T10:09:30.757Z,66.14
2018-02-19T10:10:30.457Z,66.52
2018-02-19T10:11:30.466Z,66.04
2018-02-19T10:12:30.760Z,66.23
2018-02-19T10:13:30.497Z,65.79
2018-02-19T10:14:30.791Z,65.98
2018-02-19T10:15:30.897Z,65.98
2018-02-19T10:16:30.517Z,65.6
2018-02-19T10:17:30.810Z,65.79
2018-02-19T10:18:30.536Z,65.22
2018-02-19T10:19:30.830Z,65.69
2018-02-19T10:20:30.846Z,65.79
2018-02-19T10:21:30.854Z,64.94
2018-02-19T10:22:30.578Z,65.22
2018-02-19T10:23:30.871Z,65.41
2018-02-19T10:24:30.882Z,65.41
2018-02-19T10:25:30.934Z,65.5
2018-02-19T10:26:30.904Z,64.75
2018-02-19T10:27:30.914Z,64.75
2018-02-19T10:28:30.925Z,64.75
2018-02-19T10:29:30.654Z,64.17
2018-02-19T10:30:30.964Z,64.46
2018-02-19T10:31:30.674Z,64.37
2018-02-19T10:32:30.684Z,64.37
2018-02-19T10:33:30.977Z,64.17
2018-02-19T10:34:30.989Z,63.98
2018-02-19T10:35:30.996Z,64.11
2018-02-19T10:36:30.724Z,64.3
2018-02-19T10:37:31.030Z,64.21
2018-02-19T10:38:30.748Z,64.02
2018-02-19T10:39:31.038Z,63.73
2018-02-19T10:40:30.767Z,63.73
2018-02-19T10:41:31.061Z,63.73
2018-02-19T10:42:31.073Z,63.83
2018-02-19T10:43:31.082Z,63.64
2018-02-19T10:44:31.098Z,63.64
2018-02-19T10:45:31.103Z,63.54
2018-02-19T10:46:31.114Z,63.26
2018-02-19T10:47:31.124Z,63.54
2018-02-19T10:48:31.189Z,63.83
2018-02-19T10:49:30.865Z,63.45
2018-02-19T10:50:31.162Z,63.26
2018-02-19T10:51:30.887Z,63.64
2018-02-19T10:52:30.897Z,62.97
2018-02-19T10:53:30.906Z,62.88
2018-02-19T10:54:31.215Z,62.69
2018-02-19T10:55:31.212Z,62.78
2018-02-19T10:56:31.222Z,62.5
2018-02-19T10:57:31.239Z,62.62
2018-02-19T10:58:31.245Z,62.59
2018-02-19T10:59:30.976Z,62.53
2018-02-19T11:00:31.268Z,62.53
2018-02-19T11:01:31.276Z,62.34
2018-02-19T11:02:31.287Z,62.43
2018-02-19T11:03:31.304Z,62.43
2018-02-19T11:04:31.316Z,62.53
2018-02-19T11:05:31.040Z,62.53
2018-02-19T11:06:31.340Z,61.96
2018-02-19T11:07:31.062Z,62.15
2018-02-19T11:08:31.074Z,62.34
2018-02-19T11:09:31.085Z,62.15
2018-02-19T11:10:31.101Z,62.34
2018-02-19T11:11:31.106Z,62.34
2018-02-19T11:12:31.418Z,61.96
2018-02-19T11:13:31.416Z,61.96
2018-02-19T11:14:31.428Z,61.87
2018-02-19T11:15:31.441Z,61.87
2018-02-19T11:16:31.448Z,61.48
2018-02-19T11:17:31.176Z,61.39
2018-02-19T11:18:31.525Z,61.68
2018-02-19T11:19:31.485Z,61.77
2018-02-19T11:20:31.492Z,61.58
2018-02-19T11:21:31.503Z,61.29
2018-02-19T11:22:31.515Z,61.29
2018-02-19T11:23:31.579Z,61.58
2018-02-19T11:24:31.540Z,61.58
2018-02-19T11:25:31.560Z,61.48
2018-02-19T11:26:31.563Z,61.48
2018-02-19T11:27:31.575Z,61.68
2018-02-19T11:28:31.638Z,61.42
2018-02-19T11:29:31.599Z,61.48
2018-02-19T11:30:31.608Z,61.61
2018-02-19T11:31:31.618Z,61.52
2018-02-19T11:32:31.347Z,61.23
2018-02-19T11:33:31.360Z,61.32
2018-02-19T11:34:31.655Z,61.23
2018-02-19T11:35:31.667Z,61.42
2018-02-19T11:36:31.676Z,60.75
2018-02-19T11:37:31.406Z,60.94
2018-02-19T11:38:31.703Z,60.66
2018-02-19T11:39:31.711Z,60.57
2018-02-19T11:40:31.722Z,60.85
2018-02-19T11:41:31.739Z,60.85
2018-02-19T11:42:31.747Z,60.94
2018-02-19T11:43:31.759Z,61.04
2018-02-19T11:44:31.773Z,61.04
2018-02-19T11:45:31.499Z,61.13
2018-02-19T11:46:31.794Z,61.13
2018-02-19T11:47:31.806Z,60.66
2018-02-19T11:48:31.818Z,60.66
2018-02-19T11:49:31.829Z,60.47
2018-02-19T11:50:31.849Z,60.75
2018-02-19T11:51:31.855Z,60.75
2018-02-19T11:52:31.585Z,60.75
2018-02-19T11:53:31.878Z,60.38
2018-02-19T11:54:31.888Z,60.57
2018-02-19T11:55:31.902Z,60.85
2018-02-19T11:56:31.631Z,60.94
2018-02-19T11:57:31.929Z,60.47
2018-02-19T11:58:31.653Z,60.47
2018-02-19T11:59:31.668Z,60.47
2018-02-19T12:00:31.962Z,60.31
2018-02-19T12:01:31.972Z,60.02
2018-02-19T12:02:31.986Z,60.02
2018-02-19T12:03:31.999Z,59.93
2018-02-19T12:04:32.009Z,60.02
2018-02-19T12:05:31.738Z,59.83
2018-02-19T12:06:32.037Z,59.93
2018-02-19T12:07:32.053Z,59.83
2018-02-19T12:08:32.062Z,59.83
2018-02-19T12:09:32.071Z,60.21
2018-02-19T12:10:32.088Z,59.83
2018-02-19T12:11:31.816Z,59.83
2018-02-19T12:12:32.107Z,59.74
2018-02-19T12:13:32.128Z,59.74
2018-02-19T12:14:32.137Z,60.21
2018-02-19T12:15:32.160Z,60.12
2018-02-19T12:16:31.903Z,59.93
2018-02-19T12:17:32.171Z,59.83
2018-02-19T12:18:32.182Z,59.83
2018-02-19T12:19:32.223Z,59.74
2018-02-19T12:20:32.218Z,59.55
2018-02-19T12:21:32.218Z,59.55
2018-02-19T12:22:32.232Z,59.64
2018-02-19T12:23:32.247Z,59.64
2018-02-19T12:24:32.257Z,59.74
2018-02-19T12:25:32.268Z,59.83
2018-02-19T12:26:32.279Z,59.74
2018-02-19T12:27:32.008Z,59.74
2018-02-19T12:28:32.306Z,59.64
2018-02-19T12:29:32.315Z,59.55
2018-02-19T12:30:32.333Z,59.64
2018-02-19T12:31:32.338Z,59.55
2018-02-19T12:32:32.355Z,59.93
2018-02-19T12:33:32.370Z,59.17
2018-02-19T12:34:32.378Z,59.07
2018-02-19T12:35:32.392Z,59.29
2018-02-19T12:36:32.405Z,59.2
2018-02-19T12:37:32.135Z,58.91
2018-02-19T12:38:32.432Z,59.39
2018-02-19T12:39:32.478Z,58.91
2018-02-19T12:40:32.459Z,58.72
2018-02-19T12:41:32.482Z,58.91
2018-02-19T12:42:32.489Z,59.2
2018-02-19T12:43:32.210Z,58.72
2018-02-19T12:44:32.506Z,58.81
2018-02-19T12:45:32.518Z,58.81
2018-02-19T12:46:32.535Z,58.62
2018-02-19T12:47:32.545Z,58.91
2018-02-19T12:48:32.558Z,58.81
2018-02-19T12:49:32.569Z,58.91
2018-02-19T12:50:32.300Z,58.91
2018-02-19T12:51:32.315Z,58.91
2018-02-19T12:52:32.324Z,58.15
2018-02-19T12:53:32.623Z,58.53
2018-02-19T12:54:32.633Z,58.53
2018-02-19T12:55:32.648Z,58.44